sensor_id;sensor_type;location;lat;lon;timestamp;P1;durP1;ratioP1;P2;durP2;ratioP2
2748;SDS011;1382;52.142;11.618;2022-07-03T00:00:07;4.60;;;2.20;;
2748;SDS011;1382;52.142;11.618;2022-07-03T00:02:35;5.37;;;2.07;;
2748;SDS011;1382;52.142;11.618;2022-07-03T00:05:03;2.70;;;2.30;;
2748;SDS011;1382;52.142;11.618;2022-07-03T00:07:30;2.90;;;2.50;;
2748;SDS011;1382;52.142;11.618;2022-07-03T00:09:57;2.70;;;2.50;;
2748;SDS011;1382;52.142;11.618;2022-07-03T00:12:24;2.40;;;2.03;;
2748;SDS011;1382;52.142;11.618;2022-07-03T00:14:50;2.47;;;2.27;;
2748;SDS011;1382;52.142;11.618;2022-07-03T00:17:17;2.70;;;2.50;;
2748;SDS011;1382;52.142;11.618;2022-07-03T00:19:45;9.60;;;2.20;;
2748;SDS011;1382;52.142;11.618;2022-07-03T00:22:12;2.70;;;2.20;;
2748;SDS011;1382;52.142;11.618;2022-07-03T00:24:40;2.90;;;2.33;;
2748;SDS011;1382;52.142;11.618;2022-07-03T00:27:09;3.40;;;2.70;;
2748;SDS011;1382;52.142;11.618;2022-07-03T00:29:37;5.63;;;2.10;;
2748;SDS011;1382;52.142;11.618;2022-07-03T00:32:08;3.50;;;3.00;;
2748;SDS011;1382;52.142;11.618;2022-07-03T00:34:36;3.63;;;2.77;;
2748;SDS011;1382;52.142;11.618;2022-07-03T00:37:06;2.60;;;2.40;;
2748;SDS011;1382;52.142;11.618;2022-07-03T00:39:35;2.77;;;2.57;;
2748;SDS011;1382;52.142;11.618;2022-07-03T00:42:03;2.50;;;2.20;;
2748;SDS011;1382;52.142;11.618;2022-07-03T00:44:33;2.87;;;2.40;;
2748;SDS011;1382;52.142;11.618;2022-07-03T00:47:04;3.13;;;2.47;;
2748;SDS011;1382;52.142;11.618;2022-07-03T00:49:31;2.07;;;1.97;;
2748;SDS011;1382;52.142;11.618;2022-07-03T00:51:59;3.30;;;2.60;;
2748;SDS011;1382;52.142;11.618;2022-07-03T00:54:32;2.30;;;2.10;;
2748;SDS011;1382;52.142;11.618;2022-07-03T00:57:00;2.50;;;2.30;;
2748;SDS011;1382;52.142;11.618;2022-07-03T00:59:27;3.33;;;2.80;;
2748;SDS011;1382;52.142;11.618;2022-07-03T01:01:57;3.90;;;3.00;;
2748;SDS011;1382;52.142;11.618;2022-07-03T01:04:30;3.80;;;2.23;;
2748;SDS011;1382;52.142;11.618;2022-07-03T01:07:05;4.57;;;3.07;;
2748;SDS011;1382;52.142;11.618;2022-07-03T01:09:37;3.07;;;2.87;;
2748;SDS011;1382;52.142;11.618;2022-07-03T01:12:15;2.87;;;2.67;;
2748;SDS011;1382;52.142;11.618;2022-07-03T01:14:51;5.90;;;3.27;;
2748;SDS011;1382;52.142;11.618;2022-07-03T01:17:25;2.70;;;2.20;;
2748;SDS011;1382;52.142;11.618;2022-07-03T01:19:59;3.10;;;2.80;;
2748;SDS011;1382;52.142;11.618;2022-07-03T01:22:32;6.13;;;2.50;;
2748;SDS011;1382;52.142;11.618;2022-07-03T01:25:13;2.23;;;2.13;;
2748;SDS011;1382;52.142;11.618;2022-07-03T01:27:50;2.63;;;2.43;;
2748;SDS011;1382;52.142;11.618;2022-07-03T01:30:26;3.07;;;2.80;;
2748;SDS011;1382;52.142;11.618;2022-07-03T01:32:57;4.37;;;2.60;;
2748;SDS011;1382;52.142;11.618;2022-07-03T01:35:29;3.70;;;2.57;;
2748;SDS011;1382;52.142;11.618;2022-07-03T01:38:01;4.63;;;2.90;;
2748;SDS011;1382;52.142;11.618;2022-07-03T01:40:29;4.53;;;3.13;;
2748;SDS011;1382;52.142;11.618;2022-07-03T01:42:59;4.53;;;2.47;;
2748;SDS011;1382;52.142;11.618;2022-07-03T01:45:29;4.20;;;3.13;;
2748;SDS011;1382;52.142;11.618;2022-07-03T01:47:58;4.50;;;3.20;;
2748;SDS011;1382;52.142;11.618;2022-07-03T01:50:26;4.07;;;3.17;;
2748;SDS011;1382;52.142;11.618;2022-07-03T01:52:55;4.00;;;3.20;;
2748;SDS011;1382;52.142;11.618;2022-07-03T01:55:23;2.70;;;2.50;;
2748;SDS011;1382;52.142;11.618;2022-07-03T01:57:52;4.90;;;3.80;;
2748;SDS011;1382;52.142;11.618;2022-07-03T02:00:20;3.67;;;3.33;;
2748;SDS011;1382;52.142;11.618;2022-07-03T02:02:50;2.93;;;2.73;;
2748;SDS011;1382;52.142;11.618;2022-07-03T02:05:31;3.60;;;2.80;;
2748;SDS011;1382;52.142;11.618;2022-07-03T02:08:02;4.60;;;3.30;;
2748;SDS011;1382;52.142;11.618;2022-07-03T02:10:37;3.00;;;2.70;;
2748;SDS011;1382;52.142;11.618;2022-07-03T02:13:07;3.03;;;2.73;;
2748;SDS011;1382;52.142;11.618;2022-07-03T02:15:42;6.37;;;3.70;;
2748;SDS011;1382;52.142;11.618;2022-07-03T02:18:11;4.23;;;3.23;;
2748;SDS011;1382;52.142;11.618;2022-07-03T02:20:45;3.93;;;3.07;;
2748;SDS011;1382;52.142;11.618;2022-07-03T02:23:17;5.90;;;3.43;;
2748;SDS011;1382;52.142;11.618;2022-07-03T02:25:50;3.87;;;3.40;;
2748;SDS011;1382;52.142;11.618;2022-07-03T02:28:22;4.30;;;3.47;;
2748;SDS011;1382;52.142;11.618;2022-07-03T02:30:58;3.40;;;2.97;;
2748;SDS011;1382;52.142;11.618;2022-07-03T02:33:29;4.90;;;3.20;;
2748;SDS011;1382;52.142;11.618;2022-07-03T02:35:57;3.40;;;3.10;;
2748;SDS011;1382;52.142;11.618;2022-07-03T02:38:24;5.80;;;3.50;;
2748;SDS011;1382;52.142;11.618;2022-07-03T02:40:57;2.97;;;2.67;;
2748;SDS011;1382;52.142;11.618;2022-07-03T02:43:31;2.97;;;2.73;;
2748;SDS011;1382;52.142;11.618;2022-07-03T02:46:04;3.90;;;3.50;;
2748;SDS011;1382;52.142;11.618;2022-07-03T02:48:33;3.90;;;3.60;;
2748;SDS011;1382;52.142;11.618;2022-07-03T02:51:13;3.03;;;2.73;;
2748;SDS011;1382;52.142;11.618;2022-07-03T02:53:49;3.23;;;3.03;;
2748;SDS011;1382;52.142;11.618;2022-07-03T02:59:11;3.40;;;3.00;;
2748;SDS011;1382;52.142;11.618;2022-07-03T03:01:48;3.47;;;3.17;;
2748;SDS011;1382;52.142;11.618;2022-07-03T03:04:26;4.67;;;3.07;;
2748;SDS011;1382;52.142;11.618;2022-07-03T03:06:59;5.73;;;3.20;;
2748;SDS011;1382;52.142;11.618;2022-07-03T03:09:38;3.10;;;2.90;;
2748;SDS011;1382;52.142;11.618;2022-07-03T03:12:08;5.67;;;3.57;;
2748;SDS011;1382;52.142;11.618;2022-07-03T03:14:38;5.00;;;3.07;;
2748;SDS011;1382;52.142;11.618;2022-07-03T03:17:08;3.80;;;3.50;;
2748;SDS011;1382;52.142;11.618;2022-07-03T03:19:36;4.20;;;3.80;;
2748;SDS011;1382;52.142;11.618;2022-07-03T03:22:09;7.97;;;3.53;;
2748;SDS011;1382;52.142;11.618;2022-07-03T03:24:41;4.70;;;4.30;;
2748;SDS011;1382;52.142;11.618;2022-07-03T03:27:09;5.43;;;3.77;;
2748;SDS011;1382;52.142;11.618;2022-07-03T03:29:36;3.77;;;3.47;;
2748;SDS011;1382;52.142;11.618;2022-07-03T03:32:04;5.40;;;3.80;;
2748;SDS011;1382;52.142;11.618;2022-07-03T03:34:32;4.37;;;3.70;;
2748;SDS011;1382;52.142;11.618;2022-07-03T03:37:00;3.47;;;3.27;;
2748;SDS011;1382;52.142;11.618;2022-07-03T03:39:27;5.23;;;3.43;;
2748;SDS011;1382;52.142;11.618;2022-07-03T03:41:54;4.40;;;4.10;;
2748;SDS011;1382;52.142;11.618;2022-07-03T03:44:21;5.67;;;3.33;;
2748;SDS011;1382;52.142;11.618;2022-07-03T03:46:49;4.33;;;3.93;;
2748;SDS011;1382;52.142;11.618;2022-07-03T03:49:16;4.20;;;3.30;;
2748;SDS011;1382;52.142;11.618;2022-07-03T03:51:45;5.40;;;3.80;;
2748;SDS011;1382;52.142;11.618;2022-07-03T03:54:11;4.17;;;3.87;;
2748;SDS011;1382;52.142;11.618;2022-07-03T03:56:38;5.03;;;3.33;;
2748;SDS011;1382;52.142;11.618;2022-07-03T03:59:05;5.13;;;4.03;;
2748;SDS011;1382;52.142;11.618;2022-07-03T04:01:32;4.93;;;3.50;;
2748;SDS011;1382;52.142;11.618;2022-07-03T04:03:59;6.70;;;3.70;;
2748;SDS011;1382;52.142;11.618;2022-07-03T04:06:26;4.10;;;3.80;;
2748;SDS011;1382;52.142;11.618;2022-07-03T04:08:54;4.47;;;3.57;;
2748;SDS011;1382;52.142;11.618;2022-07-03T04:11:21;3.67;;;3.37;;
2748;SDS011;1382;52.142;11.618;2022-07-03T04:13:47;5.37;;;3.13;;
2748;SDS011;1382;52.142;11.618;2022-07-03T04:16:14;5.07;;;3.80;;
2748;SDS011;1382;52.142;11.618;2022-07-03T04:18:41;4.30;;;3.43;;
2748;SDS011;1382;52.142;11.618;2022-07-03T04:21:08;6.60;;;3.87;;
2748;SDS011;1382;52.142;11.618;2022-07-03T04:23:35;7.33;;;4.17;;
2748;SDS011;1382;52.142;11.618;2022-07-03T04:26:03;4.70;;;3.57;;
2748;SDS011;1382;52.142;11.618;2022-07-03T04:28:30;6.37;;;4.10;;
2748;SDS011;1382;52.142;11.618;2022-07-03T04:30:58;9.00;;;4.07;;
2748;SDS011;1382;52.142;11.618;2022-07-03T04:33:25;4.70;;;4.20;;
2748;SDS011;1382;52.142;11.618;2022-07-03T04:35:52;7.80;;;4.23;;
2748;SDS011;1382;52.142;11.618;2022-07-03T04:38:19;3.37;;;3.07;;
2748;SDS011;1382;52.142;11.618;2022-07-03T04:40:45;6.83;;;4.10;;
2748;SDS011;1382;52.142;11.618;2022-07-03T04:43:13;3.83;;;3.53;;
2748;SDS011;1382;52.142;11.618;2022-07-03T04:45:40;4.03;;;3.73;;
2748;SDS011;1382;52.142;11.618;2022-07-03T04:48:07;5.10;;;4.70;;
2748;SDS011;1382;52.142;11.618;2022-07-03T04:50:34;3.80;;;3.30;;
2748;SDS011;1382;52.142;11.618;2022-07-03T04:53:00;3.87;;;3.47;;
2748;SDS011;1382;52.142;11.618;2022-07-03T04:55:27;4.30;;;3.90;;
2748;SDS011;1382;52.142;11.618;2022-07-03T04:57:54;4.60;;;3.97;;
2748;SDS011;1382;52.142;11.618;2022-07-03T05:00:22;6.70;;;3.60;;
2748;SDS011;1382;52.142;11.618;2022-07-03T05:02:49;4.83;;;4.43;;
2748;SDS011;1382;52.142;11.618;2022-07-03T05:05:15;4.00;;;3.70;;
2748;SDS011;1382;52.142;11.618;2022-07-03T05:07:42;6.57;;;4.20;;
2748;SDS011;1382;52.142;11.618;2022-07-03T05:10:09;3.83;;;3.53;;
2748;SDS011;1382;52.142;11.618;2022-07-03T05:12:36;7.83;;;4.57;;
2748;SDS011;1382;52.142;11.618;2022-07-03T05:15:07;4.93;;;3.60;;
2748;SDS011;1382;52.142;11.618;2022-07-03T05:17:36;3.83;;;3.43;;
2748;SDS011;1382;52.142;11.618;2022-07-03T05:20:03;4.00;;;3.70;;
2748;SDS011;1382;52.142;11.618;2022-07-03T05:22:30;3.67;;;3.37;;
2748;SDS011;1382;52.142;11.618;2022-07-03T05:24:57;4.77;;;4.00;;
2748;SDS011;1382;52.142;11.618;2022-07-03T05:27:23;4.40;;;4.00;;
2748;SDS011;1382;52.142;11.618;2022-07-03T05:29:50;3.13;;;2.93;;
2748;SDS011;1382;52.142;11.618;2022-07-03T05:32:17;4.50;;;4.17;;
2748;SDS011;1382;52.142;11.618;2022-07-03T05:34:45;4.87;;;3.70;;
2748;SDS011;1382;52.142;11.618;2022-07-03T05:37:11;4.23;;;3.90;;
2748;SDS011;1382;52.142;11.618;2022-07-03T05:39:38;4.07;;;3.67;;
2748;SDS011;1382;52.142;11.618;2022-07-03T05:42:05;4.50;;;3.30;;
2748;SDS011;1382;52.142;11.618;2022-07-03T05:44:32;4.57;;;4.17;;
2748;SDS011;1382;52.142;11.618;2022-07-03T05:46:58;4.03;;;3.60;;
2748;SDS011;1382;52.142;11.618;2022-07-03T05:49:25;4.10;;;3.70;;
2748;SDS011;1382;52.142;11.618;2022-07-03T05:51:53;4.67;;;3.67;;
2748;SDS011;1382;52.142;11.618;2022-07-03T05:54:20;4.70;;;4.23;;
2748;SDS011;1382;52.142;11.618;2022-07-03T05:56:47;4.13;;;3.83;;
2748;SDS011;1382;52.142;11.618;2022-07-03T05:59:13;4.67;;;4.20;;
2748;SDS011;1382;52.142;11.618;2022-07-03T06:01:40;4.03;;;3.63;;
2748;SDS011;1382;52.142;11.618;2022-07-03T06:04:07;3.97;;;3.57;;
2748;SDS011;1382;52.142;11.618;2022-07-03T06:06:35;3.93;;;3.53;;
2748;SDS011;1382;52.142;11.618;2022-07-03T06:09:03;4.83;;;3.90;;
2748;SDS011;1382;52.142;11.618;2022-07-03T06:11:30;3.40;;;3.10;;
2748;SDS011;1382;52.142;11.618;2022-07-03T06:13:57;4.50;;;3.87;;
2748;SDS011;1382;52.142;11.618;2022-07-03T06:16:23;7.63;;;3.77;;
2748;SDS011;1382;52.142;11.618;2022-07-03T06:18:50;6.97;;;3.93;;
2748;SDS011;1382;52.142;11.618;2022-07-03T06:21:17;3.37;;;3.07;;
2748;SDS011;1382;52.142;11.618;2022-07-03T06:23:44;5.90;;;3.80;;
2748;SDS011;1382;52.142;11.618;2022-07-03T06:26:13;4.73;;;3.80;;
2748;SDS011;1382;52.142;11.618;2022-07-03T06:28:41;3.50;;;3.20;;
2748;SDS011;1382;52.142;11.618;2022-07-03T06:31:08;4.20;;;3.77;;
2748;SDS011;1382;52.142;11.618;2022-07-03T06:33:34;4.10;;;3.73;;
2748;SDS011;1382;52.142;11.618;2022-07-03T06:36:01;4.30;;;4.00;;
2748;SDS011;1382;52.142;11.618;2022-07-03T06:38:28;3.73;;;3.20;;
2748;SDS011;1382;52.142;11.618;2022-07-03T06:40:55;3.40;;;3.10;;
2748;SDS011;1382;52.142;11.618;2022-07-03T06:43:23;4.00;;;3.60;;
2748;SDS011;1382;52.142;11.618;2022-07-03T06:45:50;5.50;;;3.80;;
2748;SDS011;1382;52.142;11.618;2022-07-03T06:48:17;4.30;;;4.00;;
2748;SDS011;1382;52.142;11.618;2022-07-03T06:50:44;4.90;;;4.13;;
2748;SDS011;1382;52.142;11.618;2022-07-03T06:53:11;3.13;;;2.93;;
2748;SDS011;1382;52.142;11.618;2022-07-03T06:55:38;4.20;;;3.87;;
2748;SDS011;1382;52.142;11.618;2022-07-03T06:58:05;4.63;;;4.23;;
2748;SDS011;1382;52.142;11.618;2022-07-03T07:00:33;4.70;;;4.30;;
2748;SDS011;1382;52.142;11.618;2022-07-03T07:03:00;4.80;;;4.40;;
2748;SDS011;1382;52.142;11.618;2022-07-03T07:05:27;16.77;;;5.03;;
2748;SDS011;1382;52.142;11.618;2022-07-03T07:07:54;4.00;;;3.70;;
2748;SDS011;1382;52.142;11.618;2022-07-03T07:10:20;5.10;;;4.57;;
2748;SDS011;1382;52.142;11.618;2022-07-03T07:12:47;5.20;;;3.60;;
2748;SDS011;1382;52.142;11.618;2022-07-03T07:15:14;8.10;;;4.30;;
2748;SDS011;1382;52.142;11.618;2022-07-03T07:17:42;5.77;;;4.20;;
2748;SDS011;1382;52.142;11.618;2022-07-03T07:20:09;7.03;;;3.50;;
2748;SDS011;1382;52.142;11.618;2022-07-03T07:22:36;3.50;;;3.20;;
2748;SDS011;1382;52.142;11.618;2022-07-03T07:25:03;3.53;;;3.23;;
2748;SDS011;1382;52.142;11.618;2022-07-03T07:27:30;3.80;;;3.50;;
2748;SDS011;1382;52.142;11.618;2022-07-03T07:29:57;5.00;;;3.50;;
2748;SDS011;1382;52.142;11.618;2022-07-03T07:32:24;3.30;;;3.10;;
2748;SDS011;1382;52.142;11.618;2022-07-03T07:34:52;3.73;;;3.47;;
2748;SDS011;1382;52.142;11.618;2022-07-03T07:37:19;4.20;;;3.90;;
2748;SDS011;1382;52.142;11.618;2022-07-03T07:39:45;7.03;;;4.20;;
2748;SDS011;1382;52.142;11.618;2022-07-03T07:42:12;5.63;;;4.10;;
2748;SDS011;1382;52.142;11.618;2022-07-03T07:44:39;5.93;;;3.20;;
2748;SDS011;1382;52.142;11.618;2022-07-03T07:47:06;4.20;;;3.80;;
2748;SDS011;1382;52.142;11.618;2022-07-03T07:49:33;4.10;;;3.57;;
2748;SDS011;1382;52.142;11.618;2022-07-03T07:52:01;3.90;;;3.50;;
2748;SDS011;1382;52.142;11.618;2022-07-03T07:54:28;5.33;;;4.43;;
2748;SDS011;1382;52.142;11.618;2022-07-03T07:56:55;3.90;;;3.50;;
2748;SDS011;1382;52.142;11.618;2022-07-03T07:59:22;4.13;;;3.50;;
2748;SDS011;1382;52.142;11.618;2022-07-03T08:01:49;4.40;;;3.50;;
2748;SDS011;1382;52.142;11.618;2022-07-03T08:04:16;3.53;;;3.23;;
2748;SDS011;1382;52.142;11.618;2022-07-03T08:06:42;5.43;;;3.37;;
2748;SDS011;1382;52.142;11.618;2022-07-03T08:09:10;5.10;;;3.20;;
2748;SDS011;1382;52.142;11.618;2022-07-03T08:11:37;3.50;;;3.20;;
2748;SDS011;1382;52.142;11.618;2022-07-03T08:14:04;4.83;;;3.17;;
2748;SDS011;1382;52.142;11.618;2022-07-03T08:16:31;3.50;;;3.27;;
2748;SDS011;1382;52.142;11.618;2022-07-03T08:18:58;3.60;;;3.30;;
2748;SDS011;1382;52.142;11.618;2022-07-03T08:21:25;3.30;;;3.00;;
2748;SDS011;1382;52.142;11.618;2022-07-03T08:23:51;3.40;;;2.87;;
2748;SDS011;1382;52.142;11.618;2022-07-03T08:26:19;3.50;;;3.20;;
2748;SDS011;1382;52.142;11.618;2022-07-03T08:28:49;3.80;;;3.50;;
2748;SDS011;1382;52.142;11.618;2022-07-03T08:31:16;3.20;;;2.90;;
2748;SDS011;1382;52.142;11.618;2022-07-03T08:33:43;4.33;;;3.50;;
2748;SDS011;1382;52.142;11.618;2022-07-03T08:36:09;3.13;;;2.90;;
2748;SDS011;1382;52.142;11.618;2022-07-03T08:38:36;3.30;;;3.00;;
2748;SDS011;1382;52.142;11.618;2022-07-03T08:41:03;3.07;;;2.60;;
2748;SDS011;1382;52.142;11.618;2022-07-03T08:43:32;2.60;;;2.40;;
2748;SDS011;1382;52.142;11.618;2022-07-03T08:45:59;3.13;;;2.53;;
2748;SDS011;1382;52.142;11.618;2022-07-03T08:48:26;4.03;;;2.50;;
2748;SDS011;1382;52.142;11.618;2022-07-03T08:50:54;3.30;;;2.70;;
2748;SDS011;1382;52.142;11.618;2022-07-03T08:53:23;4.27;;;3.00;;
2748;SDS011;1382;52.142;11.618;2022-07-03T08:55:50;3.20;;;2.37;;
2748;SDS011;1382;52.142;11.618;2022-07-03T08:58:17;4.20;;;2.80;;
2748;SDS011;1382;52.142;11.618;2022-07-03T09:00:49;2.40;;;2.27;;
2748;SDS011;1382;52.142;11.618;2022-07-03T09:03:15;3.13;;;2.83;;
2748;SDS011;1382;52.142;11.618;2022-07-03T09:05:43;3.60;;;3.30;;
2748;SDS011;1382;52.142;11.618;2022-07-03T09:08:10;2.83;;;2.53;;
2748;SDS011;1382;52.142;11.618;2022-07-03T09:10:37;3.27;;;2.97;;
2748;SDS011;1382;52.142;11.618;2022-07-03T09:13:04;2.83;;;2.63;;
2748;SDS011;1382;52.142;11.618;2022-07-03T09:15:31;3.90;;;2.90;;
2748;SDS011;1382;52.142;11.618;2022-07-03T09:17:59;3.23;;;2.70;;
2748;SDS011;1382;52.142;11.618;2022-07-03T09:20:28;3.03;;;2.83;;
2748;SDS011;1382;52.142;11.618;2022-07-03T09:23:07;4.30;;;3.20;;
2748;SDS011;1382;52.142;11.618;2022-07-03T09:25:35;2.60;;;2.40;;
2748;SDS011;1382;52.142;11.618;2022-07-03T09:28:15;2.90;;;2.60;;
2748;SDS011;1382;52.142;11.618;2022-07-03T09:30:44;3.80;;;2.70;;
2748;SDS011;1382;52.142;11.618;2022-07-03T09:33:23;3.07;;;2.77;;
2748;SDS011;1382;52.142;11.618;2022-07-03T09:35:52;2.37;;;2.17;;
2748;SDS011;1382;52.142;11.618;2022-07-03T09:38:20;2.70;;;2.50;;
2748;SDS011;1382;52.142;11.618;2022-07-03T09:40:47;1.97;;;1.87;;
2748;SDS011;1382;52.142;11.618;2022-07-03T09:43:15;2.27;;;2.10;;
2748;SDS011;1382;52.142;11.618;2022-07-03T09:45:49;3.20;;;2.80;;
2748;SDS011;1382;52.142;11.618;2022-07-03T09:48:21;2.90;;;2.70;;
2748;SDS011;1382;52.142;11.618;2022-07-03T09:51:08;2.67;;;2.30;;
2748;SDS011;1382;52.142;11.618;2022-07-03T09:53:44;2.77;;;2.40;;
2748;SDS011;1382;52.142;11.618;2022-07-03T09:56:15;2.20;;;2.00;;
2748;SDS011;1382;52.142;11.618;2022-07-03T09:58:44;2.80;;;2.03;;
2748;SDS011;1382;52.142;11.618;2022-07-03T10:01:28;2.40;;;2.20;;
2748;SDS011;1382;52.142;11.618;2022-07-03T10:04:07;2.33;;;2.13;;
2748;SDS011;1382;52.142;11.618;2022-07-03T10:06:45;4.80;;;2.20;;
2748;SDS011;1382;52.142;11.618;2022-07-03T10:09:17;2.43;;;2.23;;
2748;SDS011;1382;52.142;11.618;2022-07-03T10:11:45;2.80;;;2.47;;
2748;SDS011;1382;52.142;11.618;2022-07-03T10:14:13;1.83;;;1.70;;
2748;SDS011;1382;52.142;11.618;2022-07-03T10:16:41;3.50;;;2.00;;
2748;SDS011;1382;52.142;11.618;2022-07-03T10:19:11;4.13;;;2.37;;
2748;SDS011;1382;52.142;11.618;2022-07-03T10:21:40;2.00;;;1.90;;
2748;SDS011;1382;52.142;11.618;2022-07-03T10:24:08;3.00;;;1.60;;
2748;SDS011;1382;52.142;11.618;2022-07-03T10:26:37;1.93;;;1.80;;
2748;SDS011;1382;52.142;11.618;2022-07-03T10:29:06;2.67;;;1.77;;
2748;SDS011;1382;52.142;11.618;2022-07-03T10:31:35;2.97;;;1.77;;
2748;SDS011;1382;52.142;11.618;2022-07-03T10:34:03;1.77;;;1.50;;
2748;SDS011;1382;52.142;11.618;2022-07-03T10:36:32;1.77;;;1.67;;
2748;SDS011;1382;52.142;11.618;2022-07-03T10:39:02;2.10;;;1.90;;
2748;SDS011;1382;52.142;11.618;2022-07-03T10:41:33;2.20;;;2.00;;
2748;SDS011;1382;52.142;11.618;2022-07-03T10:44:01;3.67;;;1.87;;
2748;SDS011;1382;52.142;11.618;2022-07-03T10:46:28;2.07;;;1.90;;
2748;SDS011;1382;52.142;11.618;2022-07-03T10:48:56;4.60;;;2.03;;
2748;SDS011;1382;52.142;11.618;2022-07-03T10:51:25;1.60;;;1.50;;
2748;SDS011;1382;52.142;11.618;2022-07-03T10:54:15;2.13;;;1.83;;
2748;SDS011;1382;52.142;11.618;2022-07-03T11:02:35;1.80;;;1.70;;
2748;SDS011;1382;52.142;11.618;2022-07-03T11:05:07;2.10;;;2.00;;
2748;SDS011;1382;52.142;11.618;2022-07-03T11:07:42;1.90;;;1.80;;
2748;SDS011;1382;52.142;11.618;2022-07-03T11:10:30;1.80;;;1.70;;
2748;SDS011;1382;52.142;11.618;2022-07-03T11:12:57;1.70;;;1.60;;
2748;SDS011;1382;52.142;11.618;2022-07-03T11:15:25;1.80;;;1.70;;
2748;SDS011;1382;52.142;11.618;2022-07-03T11:18:06;3.83;;;1.90;;
2748;SDS011;1382;52.142;11.618;2022-07-03T11:20:34;2.70;;;2.10;;
2748;SDS011;1382;52.142;11.618;2022-07-03T11:23:13;2.03;;;1.93;;
2748;SDS011;1382;52.142;11.618;2022-07-03T11:25:45;4.17;;;1.97;;
2748;SDS011;1382;52.142;11.618;2022-07-03T11:31:17;1.83;;;1.73;;
2748;SDS011;1382;52.142;11.618;2022-07-03T11:33:44;1.70;;;1.60;;
2748;SDS011;1382;52.142;11.618;2022-07-03T11:36:19;2.10;;;1.90;;
2748;SDS011;1382;52.142;11.618;2022-07-03T11:38:52;6.40;;;1.97;;
2748;SDS011;1382;52.142;11.618;2022-07-03T11:41:40;1.77;;;1.67;;
2748;SDS011;1382;52.142;11.618;2022-07-03T11:44:09;2.53;;;1.80;;
2748;SDS011;1382;52.142;11.618;2022-07-03T11:46:45;2.70;;;1.63;;
2748;SDS011;1382;52.142;11.618;2022-07-03T11:49:17;2.20;;;2.00;;
2748;SDS011;1382;52.142;11.618;2022-07-03T11:51:55;2.27;;;2.00;;
2748;SDS011;1382;52.142;11.618;2022-07-03T11:54:24;2.20;;;2.00;;
2748;SDS011;1382;52.142;11.618;2022-07-03T11:56:52;1.90;;;1.80;;
2748;SDS011;1382;52.142;11.618;2022-07-03T11:59:19;3.00;;;1.80;;
2748;SDS011;1382;52.142;11.618;2022-07-03T12:01:49;8.13;;;2.47;;
2748;SDS011;1382;52.142;11.618;2022-07-03T12:04:17;2.20;;;2.10;;
2748;SDS011;1382;52.142;11.618;2022-07-03T12:06:46;1.83;;;1.73;;
2748;SDS011;1382;52.142;11.618;2022-07-03T12:09:15;3.17;;;1.80;;
2748;SDS011;1382;52.142;11.618;2022-07-03T12:11:57;1.90;;;1.77;;
2748;SDS011;1382;52.142;11.618;2022-07-03T12:14:35;2.63;;;2.00;;
2748;SDS011;1382;52.142;11.618;2022-07-03T12:17:03;3.00;;;2.27;;
2748;SDS011;1382;52.142;11.618;2022-07-03T12:19:30;2.33;;;1.97;;
2748;SDS011;1382;52.142;11.618;2022-07-03T12:21:57;2.53;;;2.30;;
2748;SDS011;1382;52.142;11.618;2022-07-03T12:24:24;2.00;;;1.90;;
2748;SDS011;1382;52.142;11.618;2022-07-03T12:26:51;2.40;;;2.20;;
2748;SDS011;1382;52.142;11.618;2022-07-03T12:29:19;2.37;;;1.80;;
2748;SDS011;1382;52.142;11.618;2022-07-03T12:31:47;1.90;;;1.80;;
2748;SDS011;1382;52.142;11.618;2022-07-03T12:34:15;1.70;;;1.60;;
2748;SDS011;1382;52.142;11.618;2022-07-03T12:36:53;3.37;;;2.20;;
2748;SDS011;1382;52.142;11.618;2022-07-03T12:39:20;5.57;;;1.83;;
2748;SDS011;1382;52.142;11.618;2022-07-03T12:41:47;1.80;;;1.70;;
2748;SDS011;1382;52.142;11.618;2022-07-03T12:44:14;2.20;;;1.90;;
2748;SDS011;1382;52.142;11.618;2022-07-03T12:46:42;3.13;;;1.70;;
2748;SDS011;1382;52.142;11.618;2022-07-03T12:49:09;2.07;;;1.87;;
2748;SDS011;1382;52.142;11.618;2022-07-03T12:51:40;2.77;;;1.70;;
2748;SDS011;1382;52.142;11.618;2022-07-03T12:54:10;1.60;;;1.50;;
2748;SDS011;1382;52.142;11.618;2022-07-03T12:56:38;2.03;;;1.83;;
2748;SDS011;1382;52.142;11.618;2022-07-03T12:59:05;6.07;;;2.30;;
2748;SDS011;1382;52.142;11.618;2022-07-03T13:01:32;2.60;;;1.70;;
2748;SDS011;1382;52.142;11.618;2022-07-03T13:04:01;1.87;;;1.43;;
2748;SDS011;1382;52.142;11.618;2022-07-03T13:06:28;3.30;;;1.80;;
2748;SDS011;1382;52.142;11.618;2022-07-03T13:08:56;1.87;;;1.60;;
2748;SDS011;1382;52.142;11.618;2022-07-03T13:11:31;1.87;;;1.70;;
2748;SDS011;1382;52.142;11.618;2022-07-03T13:14:03;1.77;;;1.67;;
2748;SDS011;1382;52.142;11.618;2022-07-03T13:16:35;1.40;;;1.30;;
2748;SDS011;1382;52.142;11.618;2022-07-03T13:19:05;1.83;;;1.73;;
2748;SDS011;1382;52.142;11.618;2022-07-03T13:21:33;1.73;;;1.63;;
2748;SDS011;1382;52.142;11.618;2022-07-03T13:24:02;1.23;;;1.13;;
2748;SDS011;1382;52.142;11.618;2022-07-03T13:26:29;2.30;;;1.30;;
2748;SDS011;1382;52.142;11.618;2022-07-03T13:28:56;1.50;;;1.40;;
2748;SDS011;1382;52.142;11.618;2022-07-03T13:31:23;2.33;;;1.60;;
2748;SDS011;1382;52.142;11.618;2022-07-03T13:33:50;1.50;;;1.40;;
2748;SDS011;1382;52.142;11.618;2022-07-03T13:36:18;2.03;;;1.93;;
2748;SDS011;1382;52.142;11.618;2022-07-03T13:38:44;2.50;;;1.80;;
2748;SDS011;1382;52.142;11.618;2022-07-03T13:41:11;1.60;;;1.50;;
2748;SDS011;1382;52.142;11.618;2022-07-03T13:43:38;1.63;;;1.53;;
2748;SDS011;1382;52.142;11.618;2022-07-03T13:46:05;1.60;;;1.50;;
2748;SDS011;1382;52.142;11.618;2022-07-03T13:48:32;1.90;;;1.60;;
2748;SDS011;1382;52.142;11.618;2022-07-03T13:50:59;2.63;;;1.73;;
2748;SDS011;1382;52.142;11.618;2022-07-03T13:53:27;1.43;;;1.33;;
2748;SDS011;1382;52.142;11.618;2022-07-03T13:55:55;1.73;;;1.43;;
2748;SDS011;1382;52.142;11.618;2022-07-03T13:58:22;2.80;;;1.50;;
2748;SDS011;1382;52.142;11.618;2022-07-03T14:00:48;2.23;;;1.77;;
2748;SDS011;1382;52.142;11.618;2022-07-03T14:03:15;1.73;;;1.63;;
2748;SDS011;1382;52.142;11.618;2022-07-03T14:05:42;1.70;;;1.60;;
2748;SDS011;1382;52.142;11.618;2022-07-03T14:08:09;1.57;;;1.43;;
2748;SDS011;1382;52.142;11.618;2022-07-03T14:10:37;1.60;;;1.50;;
2748;SDS011;1382;52.142;11.618;2022-07-03T14:13:05;1.50;;;1.30;;
2748;SDS011;1382;52.142;11.618;2022-07-03T14:15:32;2.13;;;1.60;;
2748;SDS011;1382;52.142;11.618;2022-07-03T14:17:59;1.77;;;1.67;;
2748;SDS011;1382;52.142;11.618;2022-07-03T14:20:26;2.50;;;1.27;;
2748;SDS011;1382;52.142;11.618;2022-07-03T14:22:53;1.47;;;1.37;;
2748;SDS011;1382;52.142;11.618;2022-07-03T14:25:20;2.23;;;1.53;;
2748;SDS011;1382;52.142;11.618;2022-07-03T14:27:48;1.77;;;1.43;;
2748;SDS011;1382;52.142;11.618;2022-07-03T14:30:15;1.70;;;1.30;;
2748;SDS011;1382;52.142;11.618;2022-07-03T14:32:43;1.60;;;1.50;;
2748;SDS011;1382;52.142;11.618;2022-07-03T14:35:09;1.77;;;1.23;;
2748;SDS011;1382;52.142;11.618;2022-07-03T14:37:36;2.23;;;1.40;;
2748;SDS011;1382;52.142;11.618;2022-07-03T14:40:03;3.50;;;1.83;;
2748;SDS011;1382;52.142;11.618;2022-07-03T14:42:31;9.60;;;1.50;;
2748;SDS011;1382;52.142;11.618;2022-07-03T14:44:59;1.97;;;1.03;;
2748;SDS011;1382;52.142;11.618;2022-07-03T14:47:26;3.33;;;1.83;;
2748;SDS011;1382;52.142;11.618;2022-07-03T14:49:52;1.43;;;1.33;;
2748;SDS011;1382;52.142;11.618;2022-07-03T14:52:19;1.60;;;1.50;;
2748;SDS011;1382;52.142;11.618;2022-07-03T14:54:46;2.03;;;1.70;;
2748;SDS011;1382;52.142;11.618;2022-07-03T14:57:17;1.50;;;1.40;;
2748;SDS011;1382;52.142;11.618;2022-07-03T14:59:51;1.60;;;1.50;;
2748;SDS011;1382;52.142;11.618;2022-07-03T15:02:31;2.50;;;2.30;;
2748;SDS011;1382;52.142;11.618;2022-07-03T15:05:02;2.90;;;1.60;;
2748;SDS011;1382;52.142;11.618;2022-07-03T15:07:34;1.97;;;1.57;;
2748;SDS011;1382;52.142;11.618;2022-07-03T15:10:05;2.43;;;1.57;;
2748;SDS011;1382;52.142;11.618;2022-07-03T15:12:36;2.03;;;1.83;;
2748;SDS011;1382;52.142;11.618;2022-07-03T15:15:09;5.60;;;1.63;;
2748;SDS011;1382;52.142;11.618;2022-07-03T15:17:36;3.00;;;1.87;;
2748;SDS011;1382;52.142;11.618;2022-07-03T15:20:03;2.07;;;1.87;;
2748;SDS011;1382;52.142;11.618;2022-07-03T15:22:31;4.33;;;1.37;;